createdAt,value
2023-05-12T00:00:19.786Z,0.00
2023-05-12T00:01:19.671Z,0.00
2023-05-12T00:02:19.865Z,0.00
2023-05-12T00:03:20.129Z,0.00
2023-05-12T00:04:20.204Z,0.00
2023-05-12T00:05:20.340Z,0.00
2023-05-12T00:06:20.503Z,0.00
2023-05-12T00:07:20.706Z,0.00
2023-05-12T00:08:20.876Z,0.00
2023-05-12T00:09:21.032Z,0.00
2023-05-12T00:10:21.597Z,0.00
2023-05-12T00:11:21.378Z,0.00
2023-05-12T00:12:21.548Z,0.00
2023-05-12T00:13:21.723Z,0.00
2023-05-12T00:14:21.871Z,0.00
2023-05-12T00:15:22.065Z,0.00
2023-05-12T00:16:22.277Z,0.00
2023-05-12T00:17:22.448Z,0.00
2023-05-12T00:18:22.602Z,0.00
2023-05-12T00:19:22.743Z,0.00
2023-05-12T00:20:22.961Z,0.00
2023-05-12T00:21:23.089Z,0.00
2023-05-12T00:22:23.252Z,0.00
2023-05-12T00:23:23.414Z,0.00
2023-05-12T00:24:23.566Z,0.00
2023-05-12T00:25:23.762Z,0.00
2023-05-12T00:26:23.923Z,0.00
2023-05-12T00:27:24.117Z,0.00
2023-05-12T00:28:24.277Z,0.00
2023-05-12T00:29:24.460Z,0.00
2023-05-12T00:30:24.644Z,0.00
2023-05-12T00:31:24.861Z,0.00
2023-05-12T00:32:24.992Z,0.00
2023-05-12T00:33:25.169Z,0.00
2023-05-12T00:34:25.324Z,0.00
2023-05-12T00:35:25.548Z,0.00
2023-05-12T00:36:25.659Z,0.00
2023-05-12T00:37:25.853Z,0.00
2023-05-12T00:38:26.010Z,0.00
2023-05-12T00:39:26.221Z,0.00
2023-05-12T00:40:26.374Z,0.00
2023-05-12T00:41:26.560Z,0.00
2023-05-12T00:42:26.716Z,0.00
2023-05-12T00:43:26.914Z,0.00
2023-05-12T00:44:27.081Z,0.00
2023-05-12T00:45:27.243Z,0.00
2023-05-12T00:46:27.544Z,0.00
2023-05-12T00:47:27.599Z,0.00
2023-05-12T00:48:27.789Z,0.00
2023-05-12T00:49:27.945Z,0.00
2023-05-12T00:50:28.118Z,0.00
2023-05-12T00:51:28.306Z,0.00
2023-05-12T00:52:28.447Z,0.00
2023-05-12T00:53:37.565Z,0.00
2023-05-12T00:54:29.812Z,0.00
2023-05-12T00:55:28.991Z,0.00
2023-05-12T00:56:29.180Z,0.00
2023-05-12T00:57:29.344Z,0.00
2023-05-12T00:58:29.510Z,0.00
2023-05-12T00:59:29.729Z,0.00
2023-05-12T01:00:29.900Z,0.00
2023-05-12T01:01:30.134Z,0.00
2023-05-12T01:02:30.373Z,0.00
2023-05-12T01:03:30.554Z,0.00
2023-05-12T01:04:30.625Z,0.00
2023-05-12T01:05:30.792Z,0.00
2023-05-12T01:06:30.949Z,0.00
2023-05-12T01:07:31.140Z,0.00
2023-05-12T01:08:31.292Z,0.00
2023-05-12T01:09:31.453Z,0.00
2023-05-12T01:10:31.618Z,0.00
2023-05-12T01:11:31.797Z,0.00
2023-05-12T01:12:31.953Z,0.00
2023-05-12T01:13:32.112Z,0.00
2023-05-12T01:14:32.277Z,0.00
2023-05-12T01:15:32.476Z,0.00
2023-05-12T01:16:32.638Z,0.00
2023-05-12T01:17:32.938Z,0.00
2023-05-12T01:18:33.095Z,0.00
2023-05-12T01:19:33.154Z,0.00
2023-05-12T01:20:33.306Z,0.00
2023-05-12T01:21:33.519Z,0.00
2023-05-12T01:22:33.906Z,0.00
2023-05-12T01:23:33.832Z,0.00
2023-05-12T01:24:33.990Z,0.00
2023-05-12T01:25:34.161Z,0.00
2023-05-12T01:26:34.343Z,0.00
2023-05-12T01:27:34.513Z,0.00
2023-05-12T01:28:34.694Z,0.00
2023-05-12T01:29:34.853Z,0.00
2023-05-12T01:30:35.021Z,0.00
2023-05-12T01:31:35.255Z,0.00
2023-05-12T01:32:35.371Z,0.00
2023-05-12T01:33:35.519Z,0.00
2023-05-12T01:34:35.687Z,0.00
2023-05-12T01:35:35.864Z,0.00
2023-05-12T01:36:36.037Z,0.00
2023-05-12T01:37:36.179Z,0.00
2023-05-12T01:38:36.349Z,0.00
2023-05-12T01:39:36.529Z,0.00
2023-05-12T01:40:36.694Z,0.00
2023-05-12T01:41:36.887Z,0.00
2023-05-12T01:42:37.019Z,0.00
2023-05-12T01:43:37.201Z,0.00
2023-05-12T01:44:37.396Z,0.00
2023-05-12T01:45:37.570Z,0.00
2023-05-12T01:46:37.803Z,0.00
2023-05-12T01:47:38.018Z,0.00
2023-05-12T01:48:38.072Z,0.00
2023-05-12T01:49:38.286Z,0.00
2023-05-12T01:50:38.455Z,0.00
2023-05-12T01:51:38.673Z,0.00
2023-05-12T01:52:38.810Z,0.00
2023-05-12T01:53:38.984Z,0.00
2023-05-12T01:54:39.151Z,0.00
2023-05-12T01:55:39.313Z,0.00
2023-05-12T01:56:39.473Z,0.00
2023-05-12T01:57:39.668Z,0.00
2023-05-12T01:58:39.830Z,0.00
2023-05-12T01:59:40.027Z,0.00
2023-05-12T02:00:40.216Z,0.00
2023-05-12T02:01:40.404Z,0.00
2023-05-12T02:02:42.946Z,0.00
2023-05-12T02:03:40.803Z,0.00
2023-05-12T02:04:40.932Z,0.00
2023-05-12T02:05:41.091Z,0.00
2023-05-12T02:06:41.248Z,0.00
2023-05-12T02:07:41.444Z,0.00
2023-05-12T02:08:41.680Z,0.00
2023-05-12T02:09:41.788Z,0.00
2023-05-12T02:10:41.970Z,0.00
2023-05-12T02:11:42.150Z,0.00
2023-05-12T02:12:42.325Z,0.00
2023-05-12T02:13:42.512Z,0.00
2023-05-12T02:14:42.667Z,0.00
2023-05-12T02:15:42.843Z,0.00
2023-05-12T02:16:43.020Z,0.00
2023-05-12T02:17:43.227Z,0.00
2023-05-12T02:18:43.388Z,0.00
2023-05-12T02:19:43.555Z,0.00
2023-05-12T02:20:43.720Z,0.00
2023-05-12T02:21:43.880Z,0.00
2023-05-12T02:22:44.040Z,0.00
2023-05-12T02:23:44.202Z,0.00
2023-05-12T02:24:44.410Z,0.00
2023-05-12T02:25:44.537Z,0.00
2023-05-12T02:26:44.738Z,0.00
2023-05-12T02:27:44.910Z,0.00
2023-05-12T02:28:45.057Z,0.00
2023-05-12T02:29:45.226Z,0.00
2023-05-12T02:30:45.400Z,0.00
2023-05-12T02:31:45.603Z,0.00
2023-05-12T02:32:45.747Z,0.00
2023-05-12T02:33:45.902Z,0.00
2023-05-12T02:34:46.065Z,0.00
2023-05-12T02:35:46.271Z,0.00
2023-05-12T02:36:46.436Z,0.00
2023-05-12T02:37:46.582Z,0.00
2023-05-12T02:38:46.774Z,0.00
2023-05-12T02:39:46.968Z,0.00
2023-05-12T02:40:47.128Z,0.00
2023-05-12T02:41:47.323Z,4.00
2023-05-12T02:42:47.484Z,0.00
2023-05-12T02:43:47.639Z,0.00
2023-05-12T02:44:47.823Z,4.00
2023-05-12T02:45:48.063Z,4.00
2023-05-12T02:46:48.189Z,0.00
2023-05-12T02:47:48.403Z,4.00
2023-05-12T02:48:48.569Z,4.00
2023-05-12T02:49:48.721Z,4.00
2023-05-12T02:50:48.869Z,4.00
2023-05-12T02:51:49.064Z,8.00
2023-05-12T02:52:49.222Z,8.00
2023-05-12T02:53:49.403Z,8.00
2023-05-12T02:54:49.555Z,12.00
2023-05-12T02:55:49.730Z,12.00
2023-05-12T02:56:49.944Z,12.00
2023-05-12T02:57:50.072Z,16.00
2023-05-12T02:58:50.253Z,16.00
2023-05-12T02:59:50.447Z,20.00
2023-05-12T03:00:59.844Z,24.00
2023-05-12T03:01:51.814Z,28.00
2023-05-12T03:02:51.071Z,32.00
2023-05-12T03:03:51.187Z,36.00
2023-05-12T03:04:51.328Z,44.00
2023-05-12T03:05:51.496Z,48.00
2023-05-12T03:06:51.695Z,52.00
2023-05-12T03:07:51.854Z,56.00
2023-05-12T03:08:51.999Z,64.00
2023-05-12T03:09:52.199Z,72.00
2023-05-12T03:10:52.385Z,80.00
2023-05-12T03:11:52.567Z,84.00
2023-05-12T03:12:52.733Z,96.00
2023-05-12T03:13:52.944Z,104.00
2023-05-12T03:14:53.141Z,112.00
2023-05-12T03:15:53.349Z,124.00
2023-05-12T03:16:53.506Z,136.00
2023-05-12T03:17:53.676Z,148.00
2023-05-12T03:18:53.962Z,160.00
2023-05-12T03:19:53.975Z,172.00
2023-05-12T03:20:54.161Z,188.00
2023-05-12T03:21:54.319Z,204.00
2023-05-12T03:22:54.491Z,224.00
2023-05-12T03:23:54.647Z,248.00
2023-05-12T03:24:54.823Z,272.00
2023-05-12T03:25:54.977Z,304.00
2023-05-12T03:26:55.151Z,336.00
2023-05-12T03:27:55.353Z,372.00
2023-05-12T03:28:55.546Z,408.00
2023-05-12T03:29:55.695Z,452.00
2023-05-12T03:30:55.883Z,496.00
2023-05-12T03:31:56.025Z,540.00
2023-05-12T03:32:56.284Z,588.00
2023-05-12T03:33:56.373Z,636.00
2023-05-12T03:34:56.576Z,688.00
2023-05-12T03:35:56.746Z,720.00
2023-05-12T03:36:56.918Z,760.00
2023-05-12T03:37:57.096Z,808.00
2023-05-12T03:38:57.276Z,848.00
2023-05-12T03:39:57.448Z,900.00
2023-05-12T03:40:57.621Z,960.00
2023-05-12T03:41:57.789Z,1028.00
2023-05-12T03:42:57.970Z,1104.00
2023-05-12T03:43:58.125Z,1148.00
2023-05-12T03:44:58.310Z,1180.00
2023-05-12T03:45:58.513Z,1192.00
2023-05-12T03:46:58.861Z,1192.00
2023-05-12T03:47:58.848Z,1200.00
2023-05-12T03:48:59.004Z,1228.00
2023-05-12T03:49:59.175Z,1272.00
2023-05-12T03:50:59.320Z,1372.00
2023-05-12T03:51:59.508Z,1492.00
2023-05-12T03:52:59.679Z,1572.00
2023-05-12T03:53:59.851Z,1716.00
2023-05-12T03:55:00.027Z,1768.00
2023-05-12T03:56:00.189Z,1784.00
2023-05-12T03:57:00.374Z,1772.00
2023-05-12T03:58:00.544Z,1828.00
2023-05-12T03:59:00.722Z,1888.00
2023-05-12T04:00:00.895Z,1936.00
2023-05-12T04:01:01.053Z,1916.00
2023-05-12T04:02:01.251Z,1896.00
2023-05-12T04:03:01.535Z,1972.00
2023-05-12T04:04:01.680Z,2052.00
2023-05-12T04:05:01.779Z,2116.00
2023-05-12T04:06:01.960Z,2144.00
2023-05-12T04:07:02.119Z,2164.00
2023-05-12T04:08:02.306Z,2152.00
2023-05-12T04:09:02.476Z,2220.00
2023-05-12T04:10:02.654Z,2388.00
2023-05-12T04:11:02.829Z,2416.00
2023-05-12T04:12:02.999Z,2528.00
2023-05-12T04:13:03.181Z,2520.00
2023-05-12T04:14:03.322Z,2528.00
2023-05-12T04:15:03.492Z,2620.00
2023-05-12T04:16:03.716Z,2636.00
2023-05-12T04:17:03.872Z,2580.00
2023-05-12T04:18:04.073Z,2548.00
2023-05-12T04:19:04.260Z,2540.00
2023-05-12T04:20:04.384Z,2560.00
2023-05-12T04:21:04.553Z,2588.00
2023-05-12T04:22:04.703Z,2604.00
2023-05-12T04:23:04.893Z,2652.00
2023-05-12T04:24:05.071Z,2728.00
2023-05-12T04:25:05.258Z,2868.00
2023-05-12T04:26:05.464Z,2968.00
2023-05-12T04:27:05.589Z,3080.00
2023-05-12T04:28:05.734Z,3324.00
2023-05-12T04:29:05.924Z,3200.00
2023-05-12T04:30:06.100Z,3072.00
2023-05-12T04:31:06.280Z,3032.00
2023-05-12T04:32:06.493Z,3044.00
2023-05-12T04:33:06.637Z,3048.00
2023-05-12T04:34:06.815Z,3056.00
2023-05-12T04:35:06.996Z,3096.00
2023-05-12T04:36:07.179Z,3144.00
2023-05-12T04:37:07.357Z,3188.00
2023-05-12T04:38:07.520Z,3264.00
2023-05-12T04:39:07.701Z,3380.00
2023-05-12T04:40:07.881Z,3492.00
2023-05-12T04:41:08.048Z,3556.00
2023-05-12T04:42:08.226Z,3640.00
2023-05-12T04:43:08.409Z,3596.00
2023-05-12T04:44:08.604Z,3532.00
2023-05-12T04:45:08.809Z,3536.00
2023-05-12T04:46:09.075Z,3584.00
2023-05-12T04:47:09.139Z,3656.00
2023-05-12T04:48:09.307Z,3684.00
2023-05-12T04:49:09.497Z,3796.00
2023-05-12T04:50:09.659Z,4060.00
2023-05-12T04:51:09.849Z,4364.00
2023-05-12T04:52:09.992Z,5244.00
2023-05-12T04:53:11.400Z,6320.00
2023-05-12T04:54:10.355Z,5476.00
2023-05-12T04:55:10.545Z,4392.00
2023-05-12T04:56:10.710Z,3992.00
2023-05-12T04:57:10.881Z,3980.00
2023-05-12T04:58:11.064Z,4128.00
2023-05-12T04:59:11.239Z,4504.00
2023-05-12T05:00:11.430Z,5064.00
2023-05-12T05:01:11.661Z,5280.00
2023-05-12T05:02:11.805Z,4680.00
2023-05-12T05:03:12.136Z,4544.00
2023-05-12T05:04:12.123Z,4508.00
2023-05-12T05:05:12.327Z,4464.00
2023-05-12T05:06:12.466Z,4508.00
2023-05-12T05:07:12.632Z,4672.00
2023-05-12T05:08:12.815Z,4916.00
2023-05-12T05:09:13.002Z,4904.00
2023-05-12T05:10:13.157Z,4744.00
2023-05-12T05:11:13.298Z,4884.00
2023-05-12T05:12:13.480Z,5360.00
2023-05-12T05:13:13.657Z,5384.00
2023-05-12T05:14:13.844Z,5508.00
2023-05-12T05:15:13.988Z,5684.00
2023-05-12T05:16:14.190Z,4572.00
2023-05-12T05:17:14.358Z,6544.00
2023-05-12T05:18:14.598Z,7908.00
2023-05-12T05:19:21.695Z,10588.00
2023-05-12T05:20:15.922Z,12832.00
2023-05-12T05:21:15.032Z,12404.00
2023-05-12T05:22:15.225Z,4464.00
2023-05-12T05:23:15.385Z,5716.00
2023-05-12T05:24:15.569Z,13220.00
2023-05-12T05:25:15.751Z,10724.00
2023-05-12T05:26:15.938Z,5752.00
2023-05-12T05:27:16.094Z,15808.00
2023-05-12T05:28:16.265Z,16320.00
2023-05-12T05:29:16.434Z,8836.00
2023-05-12T05:30:16.601Z,7944.00
2023-05-12T05:31:16.799Z,8072.00
2023-05-12T05:32:16.916Z,16128.00
2023-05-12T05:33:17.123Z,16864.00
2023-05-12T05:34:17.295Z,17888.00
2023-05-12T05:35:17.645Z,17888.00
2023-05-12T05:36:17.601Z,5500.00
2023-05-12T05:37:17.767Z,5968.00
2023-05-12T05:38:17.932Z,17376.00
2023-05-12T05:39:18.132Z,18944.00
2023-05-12T05:40:18.313Z,19488.00
2023-05-12T05:41:18.493Z,15768.00
2023-05-12T05:42:18.659Z,11572.00
2023-05-12T05:43:18.831Z,20480.00
2023-05-12T05:44:19.008Z,15332.00
2023-05-12T05:45:19.245Z,19968.00
2023-05-12T05:46:19.341Z,14684.00
2023-05-12T05:47:19.621Z,20480.00
2023-05-12T05:48:19.653Z,20576.00
2023-05-12T05:49:19.863Z,19520.00
2023-05-12T05:50:20.016Z,17728.00
2023-05-12T05:51:20.215Z,17504.00
2023-05-12T05:52:20.329Z,17760.00
2023-05-12T05:53:20.526Z,17952.00
2023-05-12T05:54:20.736Z,17024.00
2023-05-12T05:55:21.127Z,7624.00
2023-05-12T05:56:21.060Z,13620.00
2023-05-12T05:57:21.240Z,9068.00
2023-05-12T05:58:21.358Z,18688.00
2023-05-12T05:59:21.563Z,19200.00
2023-05-12T06:00:21.700Z,20640.00
2023-05-12T06:01:21.872Z,21344.00
2023-05-12T06:02:22.091Z,19872.00
2023-05-12T06:03:22.304Z,22048.00
2023-05-12T06:04:22.471Z,22432.00
2023-05-12T06:05:22.760Z,11400.00
2023-05-12T06:06:22.749Z,21344.00
2023-05-12T06:07:22.944Z,18816.00
2023-05-12T06:08:23.128Z,20544.00
2023-05-12T06:09:23.314Z,20832.00
2023-05-12T06:10:23.487Z,20512.00
2023-05-12T06:11:23.652Z,20800.00
2023-05-12T06:12:23.814Z,22432.00
2023-05-12T06:13:24.009Z,23232.00
2023-05-12T06:14:24.155Z,22560.00
2023-05-12T06:15:24.331Z,22976.00
2023-05-12T06:16:24.508Z,22624.00
2023-05-12T06:17:24.797Z,22720.00
2023-05-12T06:18:24.925Z,21504.00
2023-05-12T06:19:25.039Z,21760.00
2023-05-12T06:20:25.221Z,22752.00
2023-05-12T06:21:25.410Z,23456.00
2023-05-12T06:22:25.585Z,23424.00
2023-05-12T06:23:25.738Z,23424.00
2023-05-12T06:24:25.926Z,23840.00
2023-05-12T06:25:26.077Z,22976.00
2023-05-12T06:26:26.260Z,23232.00
2023-05-12T06:27:26.480Z,23360.00
2023-05-12T06:28:26.661Z,23424.00
2023-05-12T06:29:26.806Z,23488.00
2023-05-12T06:30:26.987Z,23232.00
2023-05-12T06:31:27.236Z,22624.00
2023-05-12T06:32:27.396Z,22272.00
2023-05-12T06:33:27.514Z,21792.00
2023-05-12T06:34:27.703Z,21856.00
2023-05-12T06:35:27.877Z,21824.00
2023-05-12T06:36:28.177Z,22016.00
2023-05-12T06:37:28.244Z,22176.00
2023-05-12T06:38:28.390Z,22432.00
2023-05-12T06:39:28.558Z,22880.00
2023-05-12T06:40:28.748Z,23584.00
2023-05-12T06:41:28.944Z,24032.00
2023-05-12T06:42:29.089Z,24448.00
2023-05-12T06:43:29.302Z,24640.00
2023-05-12T06:44:29.450Z,24768.00
2023-05-12T06:45:29.657Z,25088.00
2023-05-12T06:46:29.888Z,25760.00
2023-05-12T06:47:30.009Z,26368.00
2023-05-12T06:48:30.178Z,26496.00
2023-05-12T06:49:30.352Z,26016.00
2023-05-12T06:50:30.537Z,25856.00
2023-05-12T06:51:30.714Z,26560.00
2023-05-12T06:52:30.867Z,25408.00
2023-05-12T06:53:31.044Z,25920.00
2023-05-12T06:54:31.227Z,25120.00
2023-05-12T06:55:31.427Z,24608.00
2023-05-12T06:56:31.577Z,24256.00
2023-05-12T06:57:31.760Z,24256.00
2023-05-12T06:58:31.943Z,24544.00
2023-05-12T06:59:32.153Z,25024.00
2023-05-12T07:00:32.353Z,25344.00
2023-05-12T07:01:32.512Z,25632.00
2023-05-12T07:02:32.768Z,25664.00
2023-05-12T07:03:32.913Z,25440.00
2023-05-12T07:04:33.034Z,25056.00
2023-05-12T07:05:33.276Z,24864.00
2023-05-12T07:06:33.374Z,24384.00
2023-05-12T07:07:33.528Z,23776.00
2023-05-12T07:08:33.731Z,23008.00
2023-05-12T07:09:33.896Z,22208.00
2023-05-12T07:10:34.039Z,22176.00
2023-05-12T07:11:34.243Z,22720.00
2023-05-12T07:12:34.399Z,22816.00
2023-05-12T07:13:34.589Z,22944.00
2023-05-12T07:14:34.754Z,23104.00
2023-05-12T07:15:34.910Z,22880.00
2023-05-12T07:16:35.188Z,22976.00
2023-05-12T07:17:35.430Z,23424.00
2023-05-12T07:18:35.509Z,23744.00
2023-05-12T07:19:35.647Z,23520.00
2023-05-12T07:20:35.835Z,23616.00
2023-05-12T07:21:35.998Z,23968.00
2023-05-12T07:22:38.469Z,23840.00
2023-05-12T07:23:36.350Z,23840.00
2023-05-12T07:24:36.492Z,23808.00
2023-05-12T07:25:36.725Z,23776.00
2023-05-12T07:26:36.837Z,23648.00
2023-05-12T07:27:37.016Z,23616.00
2023-05-12T07:28:37.202Z,23776.00
2023-05-12T07:29:37.398Z,23936.00
2023-05-12T07:30:37.603Z,23712.00
2023-05-12T07:31:37.846Z,24000.00
2023-05-12T07:32:37.994Z,24288.00
2023-05-12T07:33:38.102Z,24032.00
2023-05-12T07:34:38.271Z,25280.00
2023-05-12T07:35:38.511Z,25440.00
2023-05-12T07:36:38.632Z,25472.00
2023-05-12T07:37:38.779Z,26144.00
2023-05-12T07:38:38.955Z,28256.00
2023-05-12T07:39:39.150Z,28992.00
2023-05-12T07:40:39.319Z,29664.00
2023-05-12T07:41:39.512Z,29056.00
2023-05-12T07:42:39.728Z,28288.00
2023-05-12T07:43:39.881Z,32224.00
2023-05-12T07:44:40.071Z,34240.00
2023-05-12T07:45:40.189Z,35680.00
2023-05-12T07:46:40.389Z,36096.00
2023-05-12T07:47:40.569Z,36928.00
2023-05-12T07:48:40.761Z,36896.00
2023-05-12T07:49:40.898Z,37984.00
2023-05-12T07:50:41.102Z,40416.00
2023-05-12T07:51:41.265Z,41888.00
2023-05-12T07:52:41.401Z,42496.00
2023-05-12T07:53:41.570Z,43040.00
2023-05-12T07:54:41.740Z,43392.00
2023-05-12T07:55:41.879Z,44896.00
2023-05-12T07:56:42.056Z,42848.00
2023-05-12T07:57:42.260Z,43072.00
2023-05-12T07:58:42.466Z,46016.00
2023-05-12T07:59:42.614Z,51008.00
2023-05-12T08:00:42.798Z,50400.00
2023-05-12T08:01:42.978Z,50272.00
2023-05-12T08:02:43.294Z,50368.00
2023-05-12T08:03:43.385Z,48384.00
2023-05-12T08:04:44.515Z,44960.00
2023-05-12T08:05:43.686Z,41280.00
2023-05-12T08:06:43.813Z,40192.00
2023-05-12T08:07:44.063Z,41728.00
2023-05-12T08:08:44.206Z,40608.00
2023-05-12T08:09:44.355Z,40448.00
2023-05-12T08:10:44.541Z,41824.00
2023-05-12T08:11:47.104Z,43168.00
2023-05-12T08:12:44.917Z,47072.00
2023-05-12T08:13:45.075Z,49984.00
2023-05-12T08:15:08.930Z,46880.00
2023-05-12T08:15:45.396Z,45536.00
2023-05-12T08:16:45.617Z,47392.00
2023-05-12T08:17:45.803Z,49856.00
2023-05-12T08:18:45.965Z,50752.00
2023-05-12T08:19:46.110Z,51072.00
2023-05-12T08:20:46.261Z,52352.00
2023-05-12T08:21:46.451Z,55456.00
2023-05-12T08:22:46.730Z,58240.00
2023-05-12T08:23:46.819Z,62080.00
2023-05-12T08:24:46.971Z,66048.00
2023-05-12T08:25:47.126Z,65344.00
2023-05-12T08:26:47.309Z,62688.00
2023-05-12T08:27:47.484Z,64480.00
2023-05-12T08:28:47.679Z,68192.00
2023-05-12T08:29:47.861Z,71968.00
2023-05-12T08:30:48.130Z,72832.00
2023-05-12T08:31:48.222Z,68480.00
2023-05-12T08:32:48.510Z,70144.00
2023-05-12T08:33:51.918Z,71104.00
2023-05-12T08:34:49.739Z,72000.00
2023-05-12T08:35:48.938Z,72960.00
2023-05-12T08:36:49.104Z,68704.00
2023-05-12T08:37:49.298Z,49472.00
2023-05-12T08:38:49.455Z,32864.00
2023-05-12T08:39:49.630Z,28224.00
2023-05-12T08:40:49.828Z,27072.00
2023-05-12T08:41:49.983Z,25248.00
2023-05-12T08:42:50.155Z,24288.00
2023-05-12T08:43:50.329Z,23072.00
2023-05-12T08:44:50.538Z,19232.00
2023-05-12T08:45:50.660Z,16376.00
2023-05-12T08:46:50.943Z,15872.00
2023-05-12T08:47:51.031Z,16008.00
2023-05-12T08:48:51.172Z,16040.00
2023-05-12T08:49:52.442Z,15948.00
2023-05-12T08:50:51.506Z,15960.00
2023-05-12T08:51:57.772Z,16072.00
2023-05-12T08:52:52.855Z,16456.00
2023-05-12T08:53:52.235Z,18464.00
2023-05-12T08:54:56.068Z,21600.00
2023-05-12T08:57:09.066Z,28608.00
2023-05-12T08:57:52.704Z,41344.00
2023-05-12T08:58:52.870Z,51840.00
2023-05-12T08:59:53.047Z,57024.00
2023-05-12T09:00:53.273Z,60512.00
2023-05-12T09:01:53.489Z,57536.00
2023-05-12T09:02:54.654Z,55808.00
2023-05-12T09:03:53.806Z,55232.00
2023-05-12T09:04:53.990Z,56224.00
2023-05-12T09:05:54.143Z,57312.00
2023-05-12T09:06:55.946Z,57888.00
2023-05-12T09:07:54.503Z,53568.00
2023-05-12T09:08:54.657Z,52704.00
2023-05-12T09:09:54.831Z,53728.00
2023-05-12T09:10:55.059Z,53024.00
2023-05-12T09:11:55.191Z,52576.00
2023-05-12T09:12:55.374Z,54944.00
2023-05-12T09:13:55.564Z,55744.00
2023-05-12T09:14:55.702Z,55136.00
2023-05-12T09:15:55.956Z,55936.00
2023-05-12T09:16:56.048Z,56096.00
2023-05-12T09:17:56.301Z,55584.00
2023-05-12T09:18:56.509Z,57376.00
2023-05-12T09:19:56.602Z,61600.00
2023-05-12T09:20:56.763Z,62144.00
2023-05-12T09:21:56.933Z,64832.00
2023-05-12T09:22:57.085Z,71104.00
2023-05-12T09:23:57.274Z,71808.00
2023-05-12T09:24:57.476Z,19424.00
2023-05-12T09:25:57.632Z,77984.00
2023-05-12T09:26:57.827Z,67072.00
2023-05-12T09:27:58.017Z,61056.00
2023-05-12T09:28:58.194Z,57152.00
2023-05-12T09:29:59.838Z,52000.00
2023-05-12T09:30:58.492Z,52320.00
2023-05-12T09:31:58.778Z,58624.00
2023-05-12T09:32:58.941Z,60416.00
2023-05-12T09:33:59.099Z,56832.00
2023-05-12T09:34:59.222Z,58624.00
2023-05-12T09:35:59.419Z,60832.00
2023-05-12T09:36:59.599Z,62848.00
2023-05-12T09:37:59.795Z,65824.00
2023-05-12T09:38:59.970Z,65952.00
2023-05-12T09:40:00.176Z,65312.00
2023-05-12T09:41:00.271Z,60768.00
2023-05-12T09:42:00.487Z,62528.00
2023-05-12T09:43:00.663Z,53120.00
2023-05-12T09:44:00.880Z,61632.00
2023-05-12T09:45:00.982Z,54368.00
2023-05-12T09:46:01.217Z,60736.00
2023-05-12T09:47:01.328Z,66912.00
2023-05-12T09:48:01.564Z,67584.00
2023-05-12T09:49:01.680Z,70976.00
2023-05-12T09:50:01.876Z,74528.00
2023-05-12T09:51:02.030Z,76224.00
2023-05-12T09:52:02.214Z,73056.00
2023-05-12T09:53:02.975Z,70016.00
2023-05-12T09:54:02.525Z,69600.00
2023-05-12T09:55:02.727Z,75104.00
2023-05-12T09:56:02.889Z,81088.00
2023-05-12T09:57:03.021Z,82144.00
2023-05-12T09:58:03.236Z,84864.00
2023-05-12T09:59:03.381Z,86976.00
2023-05-12T10:00:04.877Z,91360.00
2023-05-12T10:01:21.067Z,91712.00
2023-05-12T10:02:04.975Z,92384.00
2023-05-12T10:03:04.182Z,95648.00
2023-05-12T10:04:04.279Z,92288.00
2023-05-12T10:05:04.466Z,92640.00
2023-05-12T10:06:06.996Z,97760.00
2023-05-12T10:07:04.848Z,97024.00
2023-05-12T10:08:05.013Z,91616.00
2023-05-12T10:09:05.156Z,91040.00
2023-05-12T10:10:05.334Z,100032.00
2023-05-12T10:11:05.509Z,117856.00
2023-05-12T10:12:05.713Z,119264.00
2023-05-12T10:13:05.862Z,104384.00
2023-05-12T10:14:06.053Z,98720.00
2023-05-12T10:15:06.211Z,109056.00
2023-05-12T10:16:06.451Z,115360.00
2023-05-12T10:17:06.755Z,77696.00
2023-05-12T10:18:06.823Z,19520.00
2023-05-12T10:19:06.979Z,6936.00
2023-05-12T10:20:07.104Z,6436.00
2023-05-12T10:21:07.311Z,6296.00
2023-05-12T10:22:07.437Z,6248.00
2023-05-12T10:23:07.621Z,6220.00
2023-05-12T10:24:07.770Z,6144.00
2023-05-12T10:25:07.954Z,6076.00
2023-05-12T10:26:08.169Z,6084.00
2023-05-12T10:27:08.303Z,6300.00
2023-05-12T10:28:08.498Z,6888.00
2023-05-12T10:29:08.638Z,7604.00
2023-05-12T10:30:08.858Z,7308.00
2023-05-12T10:31:09.139Z,6076.00
2023-05-12T10:32:09.192Z,5408.00
2023-05-12T10:33:09.381Z,6424.00
2023-05-12T10:34:09.517Z,6272.00
2023-05-12T10:35:09.675Z,6372.00
2023-05-12T10:36:09.854Z,6956.00
2023-05-12T10:37:10.042Z,7168.00
2023-05-12T10:38:10.217Z,6304.00
2023-05-12T10:39:10.390Z,8264.00
2023-05-12T10:40:10.586Z,6880.00
2023-05-12T10:41:10.722Z,6960.00
2023-05-12T10:42:10.926Z,6848.00
2023-05-12T10:43:11.079Z,7416.00
2023-05-12T10:44:11.286Z,7540.00
2023-05-12T10:45:11.422Z,7456.00
2023-05-12T10:46:11.627Z,8348.00
2023-05-12T10:47:13.170Z,8880.00
2023-05-12T10:48:11.978Z,7736.00
2023-05-12T10:49:12.128Z,6752.00
2023-05-12T10:50:12.307Z,6500.00
2023-05-12T10:51:12.474Z,6328.00
2023-05-12T10:52:12.654Z,6232.00
2023-05-12T10:53:12.843Z,6088.00
2023-05-12T10:54:13.010Z,5988.00
2023-05-12T10:55:13.317Z,5936.00
2023-05-12T10:56:13.614Z,6076.00
2023-05-12T10:57:17.118Z,6424.00
2023-05-12T10:58:14.282Z,6808.00
2023-05-12T10:59:14.772Z,7000.00
2023-05-12T11:00:14.793Z,6720.00
2023-05-12T11:01:14.776Z,7360.00
2023-05-12T11:02:14.704Z,8036.00
2023-05-12T11:03:15.942Z,8312.00
2023-05-12T11:04:14.963Z,8920.00
2023-05-12T11:05:15.102Z,9128.00
2023-05-12T11:06:15.727Z,9052.00
2023-05-12T11:07:16.513Z,8612.00
2023-05-12T11:08:15.820Z,8716.00
2023-05-12T11:09:15.790Z,9800.00
2023-05-12T11:10:15.813Z,9804.00
2023-05-12T11:11:16.024Z,9232.00
2023-05-12T11:12:16.085Z,7976.00
2023-05-12T11:13:16.246Z,7168.00
2023-05-12T11:14:16.392Z,7276.00
2023-05-12T11:15:18.098Z,7764.00
2023-05-12T11:16:16.795Z,8116.00
2023-05-12T11:17:16.927Z,9736.00
2023-05-12T11:18:17.120Z,10692.00
2023-05-12T11:19:17.243Z,10608.00
2023-05-12T11:20:17.398Z,12160.00
2023-05-12T11:21:17.578Z,11576.00
2023-05-12T11:22:17.770Z,10796.00
2023-05-12T11:23:17.888Z,9072.00
2023-05-12T11:24:18.078Z,8540.00
2023-05-12T11:25:18.449Z,6848.00
2023-05-12T11:26:18.467Z,6312.00
2023-05-12T11:27:18.600Z,7188.00
2023-05-12T11:28:18.787Z,7984.00
2023-05-12T11:29:18.927Z,7684.00
2023-05-12T11:30:19.095Z,9260.00
2023-05-12T11:31:19.325Z,9556.00
2023-05-12T11:32:19.480Z,9724.00
2023-05-12T11:33:19.612Z,9312.00
2023-05-12T11:34:19.784Z,9132.00
2023-05-12T11:35:20.225Z,8980.00
2023-05-12T11:36:21.474Z,8600.00
2023-05-12T11:37:20.377Z,8320.00
2023-05-12T11:38:20.520Z,8292.00
2023-05-12T11:39:20.704Z,9036.00
2023-05-12T11:40:20.889Z,9868.00
2023-05-12T11:41:21.056Z,9852.00
2023-05-12T11:42:22.904Z,9672.00
2023-05-12T11:43:21.431Z,9820.00
2023-05-12T11:44:21.632Z,10632.00
2023-05-12T11:45:22.206Z,10784.00
2023-05-12T11:46:22.105Z,10080.00
2023-05-12T11:47:22.155Z,8928.00
2023-05-12T11:48:22.334Z,7992.00
2023-05-12T11:49:22.517Z,6736.00
2023-05-12T11:50:22.697Z,6356.00
2023-05-12T11:51:22.919Z,6388.00
2023-05-12T11:52:23.069Z,6340.00
2023-05-12T11:53:23.222Z,7644.00
2023-05-12T11:54:23.419Z,8692.00
2023-05-12T11:55:23.643Z,8984.00
2023-05-12T11:56:23.748Z,9624.00
2023-05-12T11:57:23.913Z,8344.00
2023-05-12T11:58:24.134Z,7256.00
2023-05-12T11:59:24.286Z,6604.00
2023-05-12T12:00:24.464Z,7728.00
2023-05-12T12:01:24.640Z,7996.00
2023-05-12T12:02:24.881Z,7756.00
2023-05-12T12:03:25.052Z,6760.00
2023-05-12T12:04:25.158Z,5980.00
2023-05-12T12:05:25.316Z,5836.00
2023-05-12T12:06:25.471Z,6140.00
2023-05-12T12:07:25.643Z,6668.00
2023-05-12T12:08:25.845Z,6536.00
2023-05-12T12:09:26.009Z,6208.00
2023-05-12T12:10:26.176Z,6592.00
2023-05-12T12:11:26.359Z,6300.00
2023-05-12T12:12:26.547Z,6264.00
2023-05-12T12:13:26.729Z,5736.00
2023-05-12T12:14:26.897Z,5508.00
2023-05-12T12:15:27.080Z,7012.00
2023-05-12T12:16:27.327Z,7040.00
2023-05-12T12:17:27.522Z,6780.00